sensor_id;sensor_type;location;lat;lon;timestamp;P1;durP1;ratioP1;P2;durP2;ratioP2
20857;SDS011;10589;53.636;10.012;2023-06-10T03:46:46;6.17;;;3.10;;
20857;SDS011;10589;53.636;10.012;2023-06-10T03:49:12;7.83;;;2.80;;
20857;SDS011;10589;53.636;10.012;2023-06-10T03:51:40;6.43;;;2.97;;
20857;SDS011;10589;53.636;10.012;2023-06-10T03:54:05;5.93;;;2.70;;
20857;SDS011;10589;53.636;10.012;2023-06-10T03:56:31;7.23;;;2.93;;
20857;SDS011;10589;53.636;10.012;2023-06-10T03:58:56;7.90;;;2.67;;
20857;SDS011;10589;53.636;10.012;2023-06-10T04:01:22;6.83;;;2.43;;
20857;SDS011;10589;53.636;10.012;2023-06-10T04:03:49;6.20;;;2.90;;
20857;SDS011;10589;53.636;10.012;2023-06-10T04:06:16;6.97;;;2.70;;
20857;SDS011;10589;53.636;10.012;2023-06-10T04:08:42;5.77;;;2.90;;
20857;SDS011;10589;53.636;10.012;2023-06-10T04:11:08;9.80;;;2.90;;
20857;SDS011;10589;53.636;10.012;2023-06-10T04:13:34;7.13;;;2.80;;
20857;SDS011;10589;53.636;10.012;2023-06-10T04:15:59;5.57;;;2.50;;
20857;SDS011;10589;53.636;10.012;2023-06-10T04:18:25;8.23;;;2.87;;
20857;SDS011;10589;53.636;10.012;2023-06-10T04:20:51;6.37;;;2.80;;
20857;SDS011;10589;53.636;10.012;2023-06-10T04:23:17;8.47;;;3.20;;
20857;SDS011;10589;53.636;10.012;2023-06-10T04:25:43;7.90;;;2.77;;
20857;SDS011;10589;53.636;10.012;2023-06-10T04:28:08;6.17;;;2.33;;
20857;SDS011;10589;53.636;10.012;2023-06-10T04:30:37;10.10;;;3.00;;
20857;SDS011;10589;53.636;10.012;2023-06-10T04:33:02;8.73;;;2.47;;
20857;SDS011;10589;53.636;10.012;2023-06-10T04:35:28;7.07;;;2.10;;
20857;SDS011;10589;53.636;10.012;2023-06-10T04:37:54;3.87;;;2.53;;
20857;SDS011;10589;53.636;10.012;2023-06-10T04:40:19;12.47;;;3.03;;
20857;SDS011;10589;53.636;10.012;2023-06-10T04:42:45;11.37;;;3.00;;
20857;SDS011;10589;53.636;10.012;2023-06-10T04:45:10;7.00;;;2.70;;
20857;SDS011;10589;53.636;10.012;2023-06-10T04:47:36;9.90;;;3.10;;
20857;SDS011;10589;53.636;10.012;2023-06-10T04:50:02;11.97;;;2.93;;
20857;SDS011;10589;53.636;10.012;2023-06-10T04:52:29;8.57;;;2.50;;
20857;SDS011;10589;53.636;10.012;2023-06-10T04:54:54;7.63;;;2.47;;
20857;SDS011;10589;53.636;10.012;2023-06-10T04:57:20;11.80;;;2.73;;
20857;SDS011;10589;53.636;10.012;2023-06-10T04:59:46;8.60;;;2.93;;
20857;SDS011;10589;53.636;10.012;2023-06-10T05:02:12;6.13;;;2.17;;
20857;SDS011;10589;53.636;10.012;2023-06-10T05:04:38;10.00;;;2.70;;
20857;SDS011;10589;53.636;10.012;2023-06-10T05:07:04;9.93;;;2.97;;
20857;SDS011;10589;53.636;10.012;2023-06-10T05:09:30;8.27;;;2.70;;
20857;SDS011;10589;53.636;10.012;2023-06-10T05:11:56;7.50;;;2.40;;
20857;SDS011;10589;53.636;10.012;2023-06-10T05:14:21;9.10;;;2.47;;
20857;SDS011;10589;53.636;10.012;2023-06-10T05:16:47;8.30;;;2.47;;
20857;SDS011;10589;53.636;10.012;2023-06-10T05:19:13;7.53;;;2.57;;
20857;SDS011;10589;53.636;10.012;2023-06-10T05:21:40;10.90;;;2.97;;
20857;SDS011;10589;53.636;10.012;2023-06-10T05:24:05;10.70;;;2.63;;
20857;SDS011;10589;53.636;10.012;2023-06-10T05:26:32;6.20;;;2.37;;
20857;SDS011;10589;53.636;10.012;2023-06-10T05:29:02;13.57;;;2.53;;
20857;SDS011;10589;53.636;10.012;2023-06-10T05:31:27;8.60;;;2.37;;
20857;SDS011;10589;53.636;10.012;2023-06-10T05:33:53;6.83;;;2.40;;
20857;SDS011;10589;53.636;10.012;2023-06-10T05:36:19;7.37;;;2.10;;
20857;SDS011;10589;53.636;10.012;2023-06-10T05:38:44;9.17;;;1.90;;
20857;SDS011;10589;53.636;10.012;2023-06-10T05:41:10;5.47;;;2.20;;
20857;SDS011;10589;53.636;10.012;2023-06-10T05:43:35;9.87;;;2.33;;
20857;SDS011;10589;53.636;10.012;2023-06-10T05:46:01;12.93;;;2.50;;
20857;SDS011;10589;53.636;10.012;2023-06-10T05:48:27;8.57;;;1.80;;
20857;SDS011;10589;53.636;10.012;2023-06-10T05:50:52;8.43;;;2.27;;
20857;SDS011;10589;53.636;10.012;2023-06-10T05:53:18;9.83;;;2.13;;
20857;SDS011;10589;53.636;10.012;2023-06-10T05:55:44;8.85;;;1.90;;
20857;SDS011;10589;53.636;10.012;2023-06-10T05:58:10;5.77;;;2.00;;
20857;SDS011;10589;53.636;10.012;2023-06-10T06:00:37;7.33;;;1.80;;
20857;SDS011;10589;53.636;10.012;2023-06-10T06:03:05;7.63;;;1.90;;
20857;SDS011;10589;53.636;10.012;2023-06-10T06:05:32;6.47;;;1.60;;
20857;SDS011;10589;53.636;10.012;2023-06-10T06:08:00;10.00;;;2.07;;
20857;SDS011;10589;53.636;10.012;2023-06-10T06:10:26;8.40;;;1.67;;
20857;SDS011;10589;53.636;10.012;2023-06-10T06:12:52;9.47;;;1.87;;
20857;SDS011;10589;53.636;10.012;2023-06-10T06:15:18;6.85;;;1.92;;
20857;SDS011;10589;53.636;10.012;2023-06-10T06:17:43;8.57;;;2.13;;
20857;SDS011;10589;53.636;10.012;2023-06-10T06:20:09;9.80;;;1.77;;
20857;SDS011;10589;53.636;10.012;2023-06-10T06:22:35;9.23;;;2.13;;
20857;SDS011;10589;53.636;10.012;2023-06-10T06:25:01;10.27;;;2.08;;
20857;SDS011;10589;53.636;10.012;2023-06-10T06:27:26;6.25;;;1.75;;
20857;SDS011;10589;53.636;10.012;2023-06-10T06:29:52;14.55;;;2.33;;
20857;SDS011;10589;53.636;10.012;2023-06-10T06:32:18;7.28;;;2.17;;
20857;SDS011;10589;53.636;10.012;2023-06-10T06:34:44;6.03;;;1.63;;
20857;SDS011;10589;53.636;10.012;2023-06-10T06:37:10;3.72;;;1.73;;
20857;SDS011;10589;53.636;10.012;2023-06-10T06:39:35;8.25;;;2.00;;
20857;SDS011;10589;53.636;10.012;2023-06-10T06:42:01;7.53;;;2.30;;
20857;SDS011;10589;53.636;10.012;2023-06-10T06:44:27;8.65;;;1.80;;
20857;SDS011;10589;53.636;10.012;2023-06-10T06:46:53;7.32;;;1.77;;
20857;SDS011;10589;53.636;10.012;2023-06-10T06:49:18;9.38;;;1.90;;
20857;SDS011;10589;53.636;10.012;2023-06-10T06:51:44;8.20;;;2.13;;
20857;SDS011;10589;53.636;10.012;2023-06-10T06:54:10;7.10;;;2.35;;
20857;SDS011;10589;53.636;10.012;2023-06-10T06:56:36;5.40;;;1.58;;
20857;SDS011;10589;53.636;10.012;2023-06-10T06:59:03;6.57;;;1.83;;
20857;SDS011;10589;53.636;10.012;2023-06-10T07:01:29;8.23;;;2.20;;
20857;SDS011;10589;53.636;10.012;2023-06-10T07:03:55;10.52;;;2.17;;
20857;SDS011;10589;53.636;10.012;2023-06-10T07:06:21;6.15;;;1.98;;
20857;SDS011;10589;53.636;10.012;2023-06-10T07:08:46;8.15;;;1.95;;
20857;SDS011;10589;53.636;10.012;2023-06-10T07:11:12;9.68;;;1.95;;
20857;SDS011;10589;53.636;10.012;2023-06-10T07:13:37;6.60;;;2.20;;
20857;SDS011;10589;53.636;10.012;2023-06-10T07:16:03;6.90;;;2.08;;
20857;SDS011;10589;53.636;10.012;2023-06-10T07:18:29;8.52;;;1.75;;
20857;SDS011;10589;53.636;10.012;2023-06-10T07:20:54;6.97;;;2.05;;
20857;SDS011;10589;53.636;10.012;2023-06-10T07:23:20;9.10;;;2.30;;
20857;SDS011;10589;53.636;10.012;2023-06-10T07:25:45;9.32;;;1.88;;
20857;SDS011;10589;53.636;10.012;2023-06-10T07:28:11;9.13;;;2.47;;
20857;SDS011;10589;53.636;10.012;2023-06-10T07:30:36;10.52;;;2.20;;
20857;SDS011;10589;53.636;10.012;2023-06-10T07:33:02;8.95;;;2.08;;
20857;SDS011;10589;53.636;10.012;2023-06-10T07:35:28;8.55;;;2.33;;
20857;SDS011;10589;53.636;10.012;2023-06-10T07:37:53;6.70;;;2.28;;
20857;SDS011;10589;53.636;10.012;2023-06-10T07:40:19;8.38;;;2.38;;
20857;SDS011;10589;53.636;10.012;2023-06-10T07:42:44;7.85;;;2.30;;
20857;SDS011;10589;53.636;10.012;2023-06-10T07:45:10;7.30;;;1.85;;
20857;SDS011;10589;53.636;10.012;2023-06-10T07:47:36;5.55;;;1.90;;
20857;SDS011;10589;53.636;10.012;2023-06-10T07:50:01;4.10;;;2.08;;
20857;SDS011;10589;53.636;10.012;2023-06-10T07:52:28;6.90;;;2.28;;
20857;SDS011;10589;53.636;10.012;2023-06-10T07:54:54;6.95;;;2.45;;
20857;SDS011;10589;53.636;10.012;2023-06-10T07:57:19;8.55;;;2.30;;
20857;SDS011;10589;53.636;10.012;2023-06-10T07:59:45;7.82;;;2.40;;
20857;SDS011;10589;53.636;10.012;2023-06-10T08:02:11;5.95;;;2.10;;
20857;SDS011;10589;53.636;10.012;2023-06-10T08:04:36;6.70;;;2.38;;
20857;SDS011;10589;53.636;10.012;2023-06-10T08:07:02;5.80;;;2.35;;
20857;SDS011;10589;53.636;10.012;2023-06-10T08:09:28;6.90;;;2.13;;
20857;SDS011;10589;53.636;10.012;2023-06-10T08:11:54;6.32;;;2.28;;
20857;SDS011;10589;53.636;10.012;2023-06-10T08:14:20;8.38;;;2.13;;
20857;SDS011;10589;53.636;10.012;2023-06-10T08:16:46;6.68;;;2.50;;
20857;SDS011;10589;53.636;10.012;2023-06-10T08:19:12;6.30;;;2.10;;
20857;SDS011;10589;53.636;10.012;2023-06-10T08:21:37;9.93;;;2.38;;
20857;SDS011;10589;53.636;10.012;2023-06-10T08:24:06;4.72;;;2.00;;
20857;SDS011;10589;53.636;10.012;2023-06-10T08:26:32;7.43;;;2.35;;
20857;SDS011;10589;53.636;10.012;2023-06-10T08:28:57;5.88;;;2.03;;
20857;SDS011;10589;53.636;10.012;2023-06-10T08:31:23;4.85;;;1.73;;
20857;SDS011;10589;53.636;10.012;2023-06-10T08:33:49;6.70;;;2.45;;
20857;SDS011;10589;53.636;10.012;2023-06-10T08:36:14;5.82;;;1.92;;
20857;SDS011;10589;53.636;10.012;2023-06-10T08:38:40;8.73;;;2.20;;
20857;SDS011;10589;53.636;10.012;2023-06-10T08:41:06;5.68;;;2.28;;
20857;SDS011;10589;53.636;10.012;2023-06-10T08:43:40;8.60;;;2.50;;
20857;SDS011;10589;53.636;10.012;2023-06-10T08:46:10;8.95;;;2.92;;
20857;SDS011;10589;53.636;10.012;2023-06-10T08:48:43;7.45;;;2.35;;
20857;SDS011;10589;53.636;10.012;2023-06-10T08:51:13;5.95;;;2.10;;
20857;SDS011;10589;53.636;10.012;2023-06-10T08:53:45;6.05;;;2.17;;
20857;SDS011;10589;53.636;10.012;2023-06-10T08:56:35;9.90;;;2.42;;
20857;SDS011;10589;53.636;10.012;2023-06-10T08:59:04;10.60;;;2.50;;
20857;SDS011;10589;53.636;10.012;2023-06-10T09:01:31;6.97;;;2.38;;
20857;SDS011;10589;53.636;10.012;2023-06-10T09:03:58;9.57;;;2.25;;
20857;SDS011;10589;53.636;10.012;2023-06-10T09:06:24;3.83;;;1.98;;
20857;SDS011;10589;53.636;10.012;2023-06-10T09:08:50;4.28;;;2.20;;
20857;SDS011;10589;53.636;10.012;2023-06-10T09:11:17;5.20;;;2.25;;
20857;SDS011;10589;53.636;10.012;2023-06-10T09:13:42;7.85;;;2.83;;
20857;SDS011;10589;53.636;10.012;2023-06-10T09:16:08;6.10;;;2.38;;
20857;SDS011;10589;53.636;10.012;2023-06-10T09:18:36;6.03;;;2.78;;
20857;SDS011;10589;53.636;10.012;2023-06-10T09:21:02;10.13;;;2.38;;
20857;SDS011;10589;53.636;10.012;2023-06-10T09:23:28;10.52;;;2.88;;
20857;SDS011;10589;53.636;10.012;2023-06-10T09:25:57;11.25;;;2.80;;
20857;SDS011;10589;53.636;10.012;2023-06-10T09:28:23;9.77;;;2.50;;
20857;SDS011;10589;53.636;10.012;2023-06-10T09:30:49;8.82;;;2.25;;
20857;SDS011;10589;53.636;10.012;2023-06-10T09:33:26;7.00;;;2.40;;
20857;SDS011;10589;53.636;10.012;2023-06-10T09:35:51;6.38;;;2.60;;
20857;SDS011;10589;53.636;10.012;2023-06-10T09:38:21;6.55;;;2.75;;
20857;SDS011;10589;53.636;10.012;2023-06-10T09:40:50;7.35;;;2.50;;
20857;SDS011;10589;53.636;10.012;2023-06-10T09:43:17;7.40;;;2.75;;
20857;SDS011;10589;53.636;10.012;2023-06-10T09:45:43;6.13;;;2.22;;
20857;SDS011;10589;53.636;10.012;2023-06-10T09:48:09;9.80;;;3.10;;
20857;SDS011;10589;53.636;10.012;2023-06-10T09:50:41;6.80;;;2.80;;
20857;SDS011;10589;53.636;10.012;2023-06-10T09:53:08;6.60;;;2.92;;
20857;SDS011;10589;53.636;10.012;2023-06-10T09:55:35;6.90;;;2.95;;
20857;SDS011;10589;53.636;10.012;2023-06-10T09:58:06;7.35;;;2.58;;
20857;SDS011;10589;53.636;10.012;2023-06-10T10:00:33;7.93;;;2.50;;
20857;SDS011;10589;53.636;10.012;2023-06-10T10:02:59;6.93;;;2.85;;
20857;SDS011;10589;53.636;10.012;2023-06-10T10:05:26;9.18;;;2.83;;
20857;SDS011;10589;53.636;10.012;2023-06-10T10:07:52;9.43;;;2.80;;
20857;SDS011;10589;53.636;10.012;2023-06-10T10:10:19;7.75;;;2.85;;
20857;SDS011;10589;53.636;10.012;2023-06-10T10:12:46;8.27;;;2.53;;
20857;SDS011;10589;53.636;10.012;2023-06-10T10:15:12;5.68;;;2.28;;
20857;SDS011;10589;53.636;10.012;2023-06-10T10:17:44;5.25;;;2.30;;
20857;SDS011;10589;53.636;10.012;2023-06-10T10:20:14;6.88;;;2.53;;
20857;SDS011;10589;53.636;10.012;2023-06-10T10:22:45;10.50;;;3.10;;
20857;SDS011;10589;53.636;10.012;2023-06-10T10:25:23;8.50;;;2.70;;
20857;SDS011;10589;53.636;10.012;2023-06-10T10:30:42;9.77;;;2.50;;
20857;SDS011;10589;53.636;10.012;2023-06-10T10:35:43;8.52;;;3.10;;
20857;SDS011;10589;53.636;10.012;2023-06-10T10:38:10;6.43;;;2.83;;
20857;SDS011;10589;53.636;10.012;2023-06-10T10:40:36;7.35;;;2.67;;
20857;SDS011;10589;53.636;10.012;2023-06-10T10:43:03;6.75;;;2.95;;
20857;SDS011;10589;53.636;10.012;2023-06-10T10:45:30;10.15;;;2.92;;
20857;SDS011;10589;53.636;10.012;2023-06-10T10:48:04;8.48;;;2.85;;
20857;SDS011;10589;53.636;10.012;2023-06-10T10:50:35;5.90;;;2.67;;
20857;SDS011;10589;53.636;10.012;2023-06-10T10:53:01;9.77;;;3.00;;
20857;SDS011;10589;53.636;10.012;2023-06-10T10:55:28;10.75;;;3.17;;
20857;SDS011;10589;53.636;10.012;2023-06-10T10:58:12;8.07;;;2.75;;
20857;SDS011;10589;53.636;10.012;2023-06-10T11:00:44;7.13;;;2.65;;
20857;SDS011;10589;53.636;10.012;2023-06-10T11:03:14;9.63;;;2.55;;
20857;SDS011;10589;53.636;10.012;2023-06-10T11:05:45;7.60;;;2.60;;
20857;SDS011;10589;53.636;10.012;2023-06-10T11:08:15;7.32;;;3.13;;
20857;SDS011;10589;53.636;10.012;2023-06-10T11:11:01;11.52;;;3.17;;
20857;SDS011;10589;53.636;10.012;2023-06-10T11:16:29;7.68;;;3.10;;
20857;SDS011;10589;53.636;10.012;2023-06-10T11:18:55;6.32;;;2.70;;
20857;SDS011;10589;53.636;10.012;2023-06-10T11:21:23;13.15;;;3.08;;
20857;SDS011;10589;53.636;10.012;2023-06-10T11:23:50;11.63;;;3.38;;
20857;SDS011;10589;53.636;10.012;2023-06-10T11:26:43;9.13;;;2.90;;
20857;SDS011;10589;53.636;10.012;2023-06-10T11:29:08;8.52;;;3.17;;
20857;SDS011;10589;53.636;10.012;2023-06-10T11:31:44;9.52;;;2.85;;
20857;SDS011;10589;53.636;10.012;2023-06-10T11:34:11;8.20;;;2.67;;
20857;SDS011;10589;53.636;10.012;2023-06-10T11:36:38;14.45;;;3.58;;
20857;SDS011;10589;53.636;10.012;2023-06-10T11:39:07;7.70;;;2.85;;
20857;SDS011;10589;53.636;10.012;2023-06-10T11:41:35;9.10;;;2.92;;
20857;SDS011;10589;53.636;10.012;2023-06-10T11:44:12;9.57;;;3.05;;
20857;SDS011;10589;53.636;10.012;2023-06-10T11:46:39;9.43;;;3.00;;
20857;SDS011;10589;53.636;10.012;2023-06-10T11:49:05;9.65;;;2.90;;
20857;SDS011;10589;53.636;10.012;2023-06-10T11:51:35;5.25;;;2.60;;
20857;SDS011;10589;53.636;10.012;2023-06-10T11:54:02;8.38;;;3.15;;
20857;SDS011;10589;53.636;10.012;2023-06-10T11:56:29;8.75;;;3.03;;
20857;SDS011;10589;53.636;10.012;2023-06-10T11:58:57;7.95;;;3.20;;
20857;SDS011;10589;53.636;10.012;2023-06-10T12:01:33;8.98;;;3.47;;
20857;SDS011;10589;53.636;10.012;2023-06-10T12:06:46;7.75;;;3.17;;
20857;SDS011;10589;53.636;10.012;2023-06-10T12:09:20;7.97;;;3.00;;
20857;SDS011;10589;53.636;10.012;2023-06-10T12:12:03;6.72;;;3.35;;
20857;SDS011;10589;53.636;10.012;2023-06-10T12:17:19;7.43;;;2.85;;
20857;SDS011;10589;53.636;10.012;2023-06-10T12:20:20;6.78;;;3.33;;
20857;SDS011;10589;53.636;10.012;2023-06-10T12:22:53;5.22;;;2.97;;
20857;SDS011;10589;53.636;10.012;2023-06-10T12:25:23;6.78;;;3.20;;
20857;SDS011;10589;53.636;10.012;2023-06-10T12:27:54;5.28;;;2.85;;
20857;SDS011;10589;53.636;10.012;2023-06-10T12:30:22;7.47;;;3.08;;
20857;SDS011;10589;53.636;10.012;2023-06-10T12:32:51;11.35;;;3.35;;
20857;SDS011;10589;53.636;10.012;2023-06-10T12:35:21;8.25;;;3.00;;
20857;SDS011;10589;53.636;10.012;2023-06-10T12:40:47;8.52;;;2.97;;
20857;SDS011;10589;53.636;10.012;2023-06-10T12:43:11;6.93;;;3.05;;
20857;SDS011;10589;53.636;10.012;2023-06-10T12:45:37;8.95;;;3.30;;
20857;SDS011;10589;53.636;10.012;2023-06-10T12:48:20;9.70;;;2.65;;
20857;SDS011;10589;53.636;10.012;2023-06-10T12:50:51;7.28;;;2.75;;
20857;SDS011;10589;53.636;10.012;2023-06-10T12:53:21;9.65;;;2.70;;
20857;SDS011;10589;53.636;10.012;2023-06-10T12:55:55;5.55;;;2.83;;
20857;SDS011;10589;53.636;10.012;2023-06-10T12:58:21;12.90;;;3.00;;
20857;SDS011;10589;53.636;10.012;2023-06-10T13:00:47;8.48;;;3.10;;
20857;SDS011;10589;53.636;10.012;2023-06-10T13:03:14;7.75;;;2.40;;
20857;SDS011;10589;53.636;10.012;2023-06-10T13:05:40;7.55;;;2.80;;
20857;SDS011;10589;53.636;10.012;2023-06-10T13:08:06;4.15;;;2.45;;
20857;SDS011;10589;53.636;10.012;2023-06-10T13:10:35;8.88;;;2.63;;
20857;SDS011;10589;53.636;10.012;2023-06-10T13:13:01;9.57;;;2.90;;
20857;SDS011;10589;53.636;10.012;2023-06-10T13:15:30;3.90;;;2.35;;
20857;SDS011;10589;53.636;10.012;2023-06-10T13:17:56;6.88;;;2.60;;
20857;SDS011;10589;53.636;10.012;2023-06-10T13:20:22;7.65;;;2.30;;
20857;SDS011;10589;53.636;10.012;2023-06-10T13:22:47;9.68;;;2.53;;
20857;SDS011;10589;53.636;10.012;2023-06-10T13:25:14;7.68;;;2.70;;
20857;SDS011;10589;53.636;10.012;2023-06-10T13:27:40;7.25;;;2.47;;
20857;SDS011;10589;53.636;10.012;2023-06-10T13:30:07;5.10;;;2.50;;
20857;SDS011;10589;53.636;10.012;2023-06-10T13:32:35;7.72;;;2.70;;
20857;SDS011;10589;53.636;10.012;2023-06-10T13:35:01;7.88;;;2.72;;
20857;SDS011;10589;53.636;10.012;2023-06-10T13:37:26;9.27;;;2.53;;
20857;SDS011;10589;53.636;10.012;2023-06-10T13:39:58;8.38;;;2.78;;
20857;SDS011;10589;53.636;10.012;2023-06-10T13:42:24;5.80;;;2.50;;
20857;SDS011;10589;53.636;10.012;2023-06-10T13:44:51;9.98;;;2.45;;
20857;SDS011;10589;53.636;10.012;2023-06-10T13:47:17;8.70;;;2.58;;
20857;SDS011;10589;53.636;10.012;2023-06-10T13:49:42;8.25;;;2.40;;
20857;SDS011;10589;53.636;10.012;2023-06-10T13:52:08;8.30;;;2.70;;
20857;SDS011;10589;53.636;10.012;2023-06-10T13:54:34;10.63;;;2.65;;
20857;SDS011;10589;53.636;10.012;2023-06-10T13:57:01;5.43;;;2.20;;
20857;SDS011;10589;53.636;10.012;2023-06-10T13:59:27;7.00;;;2.30;;
20857;SDS011;10589;53.636;10.012;2023-06-10T14:01:52;7.15;;;2.38;;
20857;SDS011;10589;53.636;10.012;2023-06-10T14:04:18;10.20;;;2.83;;
20857;SDS011;10589;53.636;10.012;2023-06-10T14:06:43;11.23;;;2.90;;
20857;SDS011;10589;53.636;10.012;2023-06-10T14:09:09;8.35;;;2.35;;
20857;SDS011;10589;53.636;10.012;2023-06-10T14:11:35;6.35;;;2.78;;
20857;SDS011;10589;53.636;10.012;2023-06-10T14:14:01;8.00;;;2.72;;
20857;SDS011;10589;53.636;10.012;2023-06-10T14:16:26;14.60;;;2.90;;
20857;SDS011;10589;53.636;10.012;2023-06-10T14:18:52;9.70;;;3.08;;
20857;SDS011;10589;53.636;10.012;2023-06-10T14:21:18;7.45;;;2.80;;
20857;SDS011;10589;53.636;10.012;2023-06-10T14:23:44;12.45;;;3.30;;
20857;SDS011;10589;53.636;10.012;2023-06-10T14:26:10;12.00;;;3.10;;
20857;SDS011;10589;53.636;10.012;2023-06-10T14:28:36;7.97;;;2.90;;
20857;SDS011;10589;53.636;10.012;2023-06-10T14:31:02;9.32;;;3.05;;
20857;SDS011;10589;53.636;10.012;2023-06-10T14:33:27;5.53;;;2.50;;
20857;SDS011;10589;53.636;10.012;2023-06-10T14:35:53;7.80;;;2.58;;
20857;SDS011;10589;53.636;10.012;2023-06-10T14:38:19;13.02;;;2.67;;
20857;SDS011;10589;53.636;10.012;2023-06-10T14:40:45;9.30;;;2.80;;
20857;SDS011;10589;53.636;10.012;2023-06-10T14:43:11;6.43;;;2.50;;
20857;SDS011;10589;53.636;10.012;2023-06-10T14:45:37;14.02;;;3.20;;
20857;SDS011;10589;53.636;10.012;2023-06-10T14:48:04;8.88;;;3.25;;
20857;SDS011;10589;53.636;10.012;2023-06-10T14:50:30;6.30;;;3.45;;
20857;SDS011;10589;53.636;10.012;2023-06-10T14:52:55;6.15;;;2.65;;
20857;SDS011;10589;53.636;10.012;2023-06-10T14:55:21;8.00;;;2.70;;
20857;SDS011;10589;53.636;10.012;2023-06-10T14:57:49;5.97;;;2.33;;
20857;SDS011;10589;53.636;10.012;2023-06-10T15:00:15;10.02;;;3.67;;
20857;SDS011;10589;53.636;10.012;2023-06-10T15:02:45;9.20;;;4.07;;
20857;SDS011;10589;53.636;10.012;2023-06-10T15:05:14;6.38;;;3.53;;
20857;SDS011;10589;53.636;10.012;2023-06-10T15:07:41;7.88;;;4.30;;
20857;SDS011;10589;53.636;10.012;2023-06-10T15:10:07;8.75;;;3.20;;
20857;SDS011;10589;53.636;10.012;2023-06-10T15:12:33;10.23;;;3.42;;
20857;SDS011;10589;53.636;10.012;2023-06-10T15:14:59;12.70;;;3.13;;
20857;SDS011;10589;53.636;10.012;2023-06-10T15:17:24;8.35;;;2.65;;
20857;SDS011;10589;53.636;10.012;2023-06-10T15:19:50;7.30;;;3.00;;
20857;SDS011;10589;53.636;10.012;2023-06-10T15:22:16;5.88;;;2.25;;
20857;SDS011;10589;53.636;10.012;2023-06-10T15:24:42;7.03;;;2.53;;
20857;SDS011;10589;53.636;10.012;2023-06-10T15:27:07;7.55;;;3.15;;
20857;SDS011;10589;53.636;10.012;2023-06-10T15:29:33;4.88;;;2.70;;
20857;SDS011;10589;53.636;10.012;2023-06-10T15:31:59;6.00;;;2.70;;
20857;SDS011;10589;53.636;10.012;2023-06-10T15:34:24;8.45;;;2.95;;
20857;SDS011;10589;53.636;10.012;2023-06-10T15:36:50;8.15;;;2.85;;
20857;SDS011;10589;53.636;10.012;2023-06-10T15:39:15;7.10;;;2.65;;
20857;SDS011;10589;53.636;10.012;2023-06-10T15:41:41;8.55;;;2.55;;
20857;SDS011;10589;53.636;10.012;2023-06-10T15:44:07;10.00;;;3.03;;
20857;SDS011;10589;53.636;10.012;2023-06-10T15:46:32;8.88;;;3.67;;
20857;SDS011;10589;53.636;10.012;2023-06-10T15:48:59;5.72;;;2.70;;
20857;SDS011;10589;53.636;10.012;2023-06-10T15:51:25;7.53;;;4.18;;
20857;SDS011;10589;53.636;10.012;2023-06-10T15:53:51;6.90;;;2.65;;
20857;SDS011;10589;53.636;10.012;2023-06-10T15:56:17;9.75;;;3.30;;
20857;SDS011;10589;53.636;10.012;2023-06-10T15:58:43;9.50;;;2.72;;
20857;SDS011;10589;53.636;10.012;2023-06-10T16:01:08;10.95;;;2.22;;
20857;SDS011;10589;53.636;10.012;2023-06-10T16:03:34;4.88;;;2.80;;
20857;SDS011;10589;53.636;10.012;2023-06-10T16:06:00;6.68;;;2.92;;
20857;SDS011;10589;53.636;10.012;2023-06-10T16:08:26;6.35;;;2.63;;
20857;SDS011;10589;53.636;10.012;2023-06-10T16:10:51;7.88;;;2.75;;
20857;SDS011;10589;53.636;10.012;2023-06-10T16:13:17;8.13;;;3.50;;
20857;SDS011;10589;53.636;10.012;2023-06-10T16:15:43;7.97;;;2.63;;
20857;SDS011;10589;53.636;10.012;2023-06-10T16:18:08;5.68;;;2.63;;
20857;SDS011;10589;53.636;10.012;2023-06-10T16:20:34;11.77;;;3.22;;
20857;SDS011;10589;53.636;10.012;2023-06-10T16:23:01;8.48;;;2.30;;
20857;SDS011;10589;53.636;10.012;2023-06-10T16:25:27;12.32;;;2.80;;
20857;SDS011;10589;53.636;10.012;2023-06-10T16:27:53;8.23;;;3.85;;
20857;SDS011;10589;53.636;10.012;2023-06-10T16:30:18;9.13;;;2.72;;
20857;SDS011;10589;53.636;10.012;2023-06-10T16:32:44;6.80;;;2.75;;
20857;SDS011;10589;53.636;10.012;2023-06-10T16:35:10;8.23;;;2.72;;
20857;SDS011;10589;53.636;10.012;2023-06-10T16:37:35;9.27;;;2.60;;
20857;SDS011;10589;53.636;10.012;2023-06-10T16:40:01;6.70;;;2.38;;
20857;SDS011;10589;53.636;10.012;2023-06-10T16:42:27;7.78;;;2.97;;
20857;SDS011;10589;53.636;10.012;2023-06-10T16:44:52;8.77;;;3.03;;
20857;SDS011;10589;53.636;10.012;2023-06-10T16:47:18;10.00;;;3.45;;
20857;SDS011;10589;53.636;10.012;2023-06-10T16:49:43;7.15;;;2.92;;
20857;SDS011;10589;53.636;10.012;2023-06-10T16:52:09;10.07;;;2.63;;
20857;SDS011;10589;53.636;10.012;2023-06-10T16:54:35;7.95;;;2.60;;
20857;SDS011;10589;53.636;10.012;2023-06-10T16:57:00;12.10;;;3.30;;
20857;SDS011;10589;53.636;10.012;2023-06-10T16:59:26;7.30;;;2.45;;
20857;SDS011;10589;53.636;10.012;2023-06-10T17:01:51;11.55;;;3.65;;
20857;SDS011;10589;53.636;10.012;2023-06-10T17:04:17;7.38;;;2.95;;
20857;SDS011;10589;53.636;10.012;2023-06-10T17:06:43;6.53;;;2.38;;
20857;SDS011;10589;53.636;10.012;2023-06-10T17:09:08;9.52;;;3.05;;
20857;SDS011;10589;53.636;10.012;2023-06-10T17:11:34;7.10;;;3.00;;
20857;SDS011;10589;53.636;10.012;2023-06-10T17:13:59;10.50;;;3.13;;
20857;SDS011;10589;53.636;10.012;2023-06-10T17:16:25;8.63;;;2.83;;
20857;SDS011;10589;53.636;10.012;2023-06-10T17:18:51;9.63;;;3.28;;
20857;SDS011;10589;53.636;10.012;2023-06-10T17:21:16;7.72;;;2.83;;
20857;SDS011;10589;53.636;10.012;2023-06-10T17:23:42;9.00;;;2.90;;
20857;SDS011;10589;53.636;10.012;2023-06-10T17:26:07;11.25;;;3.10;;
20857;SDS011;10589;53.636;10.012;2023-06-10T17:28:33;7.18;;;3.90;;
20857;SDS011;10589;53.636;10.012;2023-06-10T17:30:58;10.85;;;3.22;;
20857;SDS011;10589;53.636;10.012;2023-06-10T17:33:24;14.27;;;3.78;;
20857;SDS011;10589;53.636;10.012;2023-06-10T17:35:50;8.85;;;3.38;;
20857;SDS011;10589;53.636;10.012;2023-06-10T17:38:16;9.13;;;3.10;;
20857;SDS011;10589;53.636;10.012;2023-06-10T17:40:44;8.45;;;3.00;;
20857;SDS011;10589;53.636;10.012;2023-06-10T17:43:10;7.78;;;2.75;;
20857;SDS011;10589;53.636;10.012;2023-06-10T17:45:35;8.43;;;2.92;;
20857;SDS011;10589;53.636;10.012;2023-06-10T17:48:01;8.35;;;2.90;;
20857;SDS011;10589;53.636;10.012;2023-06-10T17:50:27;12.30;;;3.22;;
20857;SDS011;10589;53.636;10.012;2023-06-10T17:52:53;8.20;;;2.75;;
20857;SDS011;10589;53.636;10.012;2023-06-10T17:55:18;11.15;;;3.20;;
20857;SDS011;10589;53.636;10.012;2023-06-10T17:57:44;8.63;;;3.58;;
20857;SDS011;10589;53.636;10.012;2023-06-10T18:00:10;9.32;;;3.33;;
20857;SDS011;10589;53.636;10.012;2023-06-10T18:02:37;7.85;;;2.90;;
20857;SDS011;10589;53.636;10.012;2023-06-10T18:05:03;7.80;;;3.22;;
20857;SDS011;10589;53.636;10.012;2023-06-10T18:07:29;9.25;;;3.00;;
20857;SDS011;10589;53.636;10.012;2023-06-10T18:09:55;14.25;;;3.15;;
20857;SDS011;10589;53.636;10.012;2023-06-10T18:12:21;10.80;;;2.72;;
20857;SDS011;10589;53.636;10.012;2023-06-10T18:14:47;14.80;;;2.95;;
20857;SDS011;10589;53.636;10.012;2023-06-10T18:17:12;8.18;;;3.20;;
20857;SDS011;10589;53.636;10.012;2023-06-10T18:19:38;8.57;;;3.03;;
20857;SDS011;10589;53.636;10.012;2023-06-10T18:22:04;6.47;;;2.97;;
20857;SDS011;10589;53.636;10.012;2023-06-10T18:24:30;11.98;;;2.67;;
20857;SDS011;10589;53.636;10.012;2023-06-10T18:26:56;10.40;;;3.42;;
20857;SDS011;10589;53.636;10.012;2023-06-10T18:29:21;10.13;;;2.80;;
20857;SDS011;10589;53.636;10.012;2023-06-10T18:31:47;8.45;;;2.70;;
20857;SDS011;10589;53.636;10.012;2023-06-10T18:34:12;7.53;;;2.83;;